createdAt,value
2018-01-15T00:01:45.493Z,2.20
2018-01-15T00:04:12.918Z,2.30
2018-01-15T00:06:40.337Z,2.30
2018-01-15T00:09:07.837Z,2.30
2018-01-15T00:11:36.284Z,2.30
2018-01-15T00:14:03.745Z,2.30
2018-01-15T00:16:31.379Z,2.30
2018-01-15T00:18:58.969Z,2.30
2018-01-15T00:21:26.385Z,2.40
2018-01-15T00:23:53.881Z,2.40
2018-01-15T00:26:21.633Z,2.30
2018-01-15T00:28:49.053Z,2.30
2018-01-15T00:31:16.560Z,2.30
2018-01-15T00:33:44.027Z,2.40
2018-01-15T00:36:11.477Z,2.30
2018-01-15T00:38:39.227Z,2.30
2018-01-15T00:41:06.817Z,2.40
2018-01-15T00:43:34.466Z,2.40
2018-01-15T00:46:02.097Z,2.40
2018-01-15T00:48:29.518Z,2.50
2018-01-15T00:50:56.937Z,2.50
2018-01-15T00:53:24.474Z,2.60
2018-01-15T00:55:52.061Z,2.60
2018-01-15T00:58:19.522Z,2.70
2018-01-15T01:00:46.949Z,2.80
2018-01-15T01:03:14.446Z,2.90
2018-01-15T01:05:41.870Z,2.90
2018-01-15T01:08:09.315Z,2.90
2018-01-15T01:10:37.593Z,2.90
2018-01-15T01:13:05.188Z,2.90
2018-01-15T01:15:32.605Z,2.90
2018-01-15T01:18:00.105Z,2.90
2018-01-15T01:20:27.752Z,2.90
2018-01-15T01:22:55.225Z,2.90
2018-01-15T01:25:22.789Z,2.80
2018-01-15T01:27:50.208Z,2.80
2018-01-15T01:30:17.697Z,2.80
2018-01-15T01:32:45.463Z,2.80
2018-01-15T01:35:12.885Z,2.70
2018-01-15T01:37:40.382Z,2.70
2018-01-15T01:40:07.829Z,2.70
2018-01-15T01:42:35.250Z,2.60
2018-01-15T01:45:02.680Z,2.60
2018-01-15T01:47:30.209Z,2.60
2018-01-15T01:49:57.977Z,2.60
2018-01-15T01:52:25.402Z,2.60
2018-01-15T01:54:52.897Z,2.60
2018-01-15T01:57:20.321Z,2.60
2018-01-15T01:59:47.795Z,2.60
2018-01-15T02:02:15.214Z,2.60
2018-01-15T02:04:42.641Z,2.60
2018-01-15T02:07:10.062Z,2.60
2018-01-15T02:09:37.516Z,2.60
2018-01-15T02:12:04.981Z,2.60
2018-01-15T02:14:32.553Z,2.60
2018-01-15T02:16:59.978Z,2.70
2018-01-15T02:19:27.393Z,2.70
2018-01-15T02:21:54.929Z,2.70
2018-01-15T02:24:22.348Z,2.80
2018-01-15T02:26:49.801Z,2.80
2018-01-15T02:29:17.305Z,2.80
2018-01-15T02:31:44.761Z,2.80
2018-01-15T02:34:12.190Z,2.80
2018-01-15T02:36:39.681Z,2.80
2018-01-15T02:39:07.100Z,2.80
2018-01-15T02:41:34.518Z,2.80
2018-01-15T02:44:01.965Z,2.80
2018-01-15T02:46:29.395Z,2.70
2018-01-15T02:48:56.865Z,2.70
2018-01-15T02:51:24.422Z,2.70
2018-01-15T02:53:51.845Z,2.60
2018-01-15T02:56:19.337Z,2.60
2018-01-15T02:58:46.792Z,2.60
2018-01-15T03:01:14.248Z,2.50
2018-01-15T03:03:41.712Z,2.60
2018-01-15T03:06:09.479Z,2.50
2018-01-15T03:08:36.901Z,2.50
2018-01-15T03:11:04.319Z,2.50
2018-01-15T03:13:31.736Z,2.50
2018-01-15T03:15:59.399Z,2.50
2018-01-15T03:18:26.824Z,2.50
2018-01-15T03:20:54.534Z,2.50
2018-01-15T03:23:22.300Z,2.50
2018-01-15T03:25:49.924Z,2.50
2018-01-15T03:28:17.349Z,2.50
2018-01-15T03:30:44.842Z,2.50
2018-01-15T03:33:12.430Z,2.60
2018-01-15T03:35:39.890Z,2.70
2018-01-15T03:38:07.528Z,2.60
2018-01-15T03:40:34.981Z,2.70
2018-01-15T03:43:02.574Z,2.70
2018-01-15T03:45:30.034Z,2.70
2018-01-15T03:47:57.693Z,2.80
2018-01-15T03:50:25.193Z,2.80
2018-01-15T03:52:52.714Z,2.80
2018-01-15T03:55:20.133Z,2.90
2018-01-15T03:57:47.633Z,2.90
2018-01-15T04:00:15.361Z,2.90
2018-01-15T04:02:42.785Z,2.90
2018-01-15T04:05:10.209Z,3.00
2018-01-15T04:07:37.765Z,3.00
2018-01-15T04:10:05.189Z,3.00
2018-01-15T04:12:32.606Z,3.00
2018-01-15T04:15:00.961Z,3.10
2018-01-15T04:17:28.389Z,3.10
2018-01-15T04:19:55.901Z,3.10
2018-01-15T04:22:24.256Z,3.20
2018-01-15T04:24:52.007Z,3.20
2018-01-15T04:27:19.582Z,3.20
2018-01-15T04:29:47.210Z,3.20
2018-01-15T04:32:14.664Z,3.20
2018-01-15T04:34:42.161Z,3.20
2018-01-15T04:37:09.618Z,3.30
2018-01-15T04:39:37.068Z,3.30
2018-01-15T04:42:04.493Z,3.30
2018-01-15T04:44:32.702Z,3.40
2018-01-15T04:47:00.166Z,3.40
2018-01-15T04:49:27.757Z,3.40
2018-01-15T04:51:55.193Z,3.40
2018-01-15T04:54:22.844Z,3.30
2018-01-15T04:56:50.650Z,3.40
2018-01-15T04:59:18.241Z,3.40
2018-01-15T05:01:45.833Z,3.60
2018-01-15T05:04:13.285Z,3.70
2018-01-15T05:06:40.704Z,3.70
2018-01-15T05:09:08.209Z,3.80
2018-01-15T05:11:35.738Z,3.80
2018-01-15T05:14:03.297Z,3.80
2018-01-15T05:16:30.773Z,3.90
2018-01-15T05:18:58.245Z,3.90
2018-01-15T05:21:25.697Z,4.00
2018-01-15T05:23:53.188Z,4.00
2018-01-15T05:26:20.722Z,4.10
2018-01-15T05:28:48.357Z,4.10
2018-01-15T05:31:15.826Z,4.10
2018-01-15T05:33:43.251Z,4.20
2018-01-15T05:36:11.652Z,4.20
2018-01-15T05:38:39.243Z,4.20
2018-01-15T05:41:06.766Z,4.30
2018-01-15T05:43:34.329Z,4.30
2018-01-15T05:46:02.007Z,4.30
2018-01-15T05:48:29.405Z,4.40
2018-01-15T05:50:56.829Z,4.40
2018-01-15T05:53:24.285Z,4.30
2018-01-15T05:55:51.705Z,4.30
2018-01-15T05:58:19.211Z,4.30
2018-01-15T06:00:46.716Z,4.40
2018-01-15T06:03:14.324Z,4.40
2018-01-15T06:05:41.976Z,4.40
2018-01-15T06:08:09.658Z,4.50
2018-01-15T06:10:37.082Z,4.50
2018-01-15T06:13:04.505Z,4.50
2018-01-15T06:15:32.025Z,4.50
2018-01-15T06:17:59.486Z,4.50
2018-01-15T06:20:27.013Z,4.50
2018-01-15T06:22:54.602Z,4.50
2018-01-15T06:25:22.067Z,4.50
2018-01-15T06:27:49.618Z,4.60
2018-01-15T06:30:17.257Z,4.60
2018-01-15T06:32:44.709Z,4.60
2018-01-15T06:35:12.197Z,4.60
2018-01-15T06:37:39.665Z,4.60
2018-01-15T06:40:07.152Z,4.60
2018-01-15T06:42:34.678Z,4.60
2018-01-15T06:45:02.104Z,4.70
2018-01-15T06:47:29.541Z,4.70
2018-01-15T06:49:57.054Z,4.70
2018-01-15T06:52:24.505Z,4.70
2018-01-15T06:54:51.953Z,4.70
2018-01-15T06:57:19.374Z,4.70
2018-01-15T06:59:46.881Z,4.70
2018-01-15T07:02:14.304Z,4.80
2018-01-15T07:04:41.721Z,4.80
2018-01-15T07:07:09.145Z,4.80
2018-01-15T07:09:36.565Z,4.80
2018-01-15T07:12:04.958Z,4.80
2018-01-15T07:14:32.477Z,4.80
2018-01-15T07:16:59.932Z,4.80
2018-01-15T07:19:27.459Z,4.80
2018-01-15T07:21:54.918Z,4.70
2018-01-15T07:24:22.349Z,4.80
2018-01-15T07:26:49.857Z,4.80
2018-01-15T07:29:17.302Z,4.80
2018-01-15T07:31:44.730Z,4.80
2018-01-15T07:34:12.221Z,4.80
2018-01-15T07:36:39.640Z,4.90
2018-01-15T07:39:07.189Z,4.90
2018-01-15T07:41:34.951Z,4.90
2018-01-15T07:44:02.566Z,4.90
2018-01-15T07:46:30.117Z,4.90
2018-01-15T07:48:57.577Z,4.80
2018-01-15T07:51:24.997Z,4.80
2018-01-15T07:53:52.425Z,4.70
2018-01-15T07:56:19.954Z,4.70
2018-01-15T07:58:47.708Z,4.70
2018-01-15T08:01:15.128Z,4.70
2018-01-15T08:03:42.565Z,4.70
2018-01-15T08:06:09.985Z,4.70
2018-01-15T08:08:37.543Z,4.80
2018-01-15T08:11:05.173Z,4.80
2018-01-15T08:13:32.769Z,4.80
2018-01-15T08:16:00.418Z,4.80
2018-01-15T08:18:27.841Z,4.80
2018-01-15T08:20:56.033Z,4.80
2018-01-15T08:23:23.825Z,4.80
2018-01-15T08:25:51.285Z,4.80
2018-01-15T08:28:18.709Z,4.90
2018-01-15T08:30:46.125Z,4.90
2018-01-15T08:33:13.557Z,5.00
2018-01-15T08:35:41.122Z,5.00
2018-01-15T08:38:08.540Z,5.00
2018-01-15T08:40:35.966Z,5.10
2018-01-15T08:43:03.389Z,5.10
2018-01-15T08:45:30.812Z,5.10
2018-01-15T08:47:58.301Z,5.10
2018-01-15T08:50:25.865Z,5.10
2018-01-15T08:52:53.317Z,5.10
2018-01-15T08:55:20.950Z,5.10
2018-01-15T08:57:48.381Z,5.10
2018-01-15T09:00:15.942Z,5.10
2018-01-15T09:02:43.360Z,5.20
2018-01-15T09:05:10.914Z,5.20
2018-01-15T09:07:38.378Z,5.30
2018-01-15T09:10:06.189Z,5.30
2018-01-15T09:12:33.812Z,5.40
2018-01-15T09:15:01.233Z,5.40
2018-01-15T09:17:28.821Z,5.50
2018-01-15T09:19:56.585Z,5.60
2018-01-15T09:22:24.237Z,5.60
2018-01-15T09:24:51.702Z,5.60
2018-01-15T09:27:19.169Z,5.60
2018-01-15T09:29:46.726Z,5.70
2018-01-15T09:32:14.190Z,5.70
2018-01-15T09:34:41.626Z,5.80
2018-01-15T09:37:09.093Z,5.80
2018-01-15T09:39:36.586Z,5.90
2018-01-15T09:42:03.970Z,6.00
2018-01-15T09:44:31.476Z,6.00
2018-01-15T09:46:58.899Z,6.10
2018-01-15T09:49:26.393Z,6.20
2018-01-15T09:51:54.038Z,6.20
2018-01-15T09:54:21.512Z,6.30
2018-01-15T09:56:48.934Z,6.20
2018-01-15T09:59:16.429Z,6.30
2018-01-15T10:01:43.854Z,6.20
2018-01-15T10:04:11.341Z,6.10
2018-01-15T10:06:38.769Z,6.10
2018-01-15T10:09:06.257Z,6.10
2018-01-15T10:11:33.813Z,6.10
2018-01-15T10:14:01.237Z,6.10
2018-01-15T10:16:28.729Z,6.20
2018-01-15T10:18:56.182Z,6.20
2018-01-15T10:21:23.600Z,6.20
2018-01-15T10:23:51.107Z,6.20
2018-01-15T10:26:18.563Z,6.20
2018-01-15T10:28:46.027Z,6.20
2018-01-15T10:31:13.506Z,6.30
2018-01-15T10:33:41.236Z,6.30
2018-01-15T10:36:08.666Z,6.30
2018-01-15T10:38:36.091Z,6.40
2018-01-15T10:41:03.720Z,6.40
2018-01-15T10:43:31.375Z,6.50
2018-01-15T10:45:58.811Z,6.60
2018-01-15T10:48:26.230Z,6.50
2018-01-15T10:50:53.756Z,6.60
2018-01-15T10:53:21.381Z,6.60
2018-01-15T10:55:48.817Z,6.60
2018-01-15T10:58:17.014Z,6.70
2018-01-15T11:00:50.032Z,6.70
2018-01-15T11:03:17.454Z,6.80
2018-01-15T11:05:44.905Z,6.80
2018-01-15T11:08:12.329Z,6.80
2018-01-15T11:10:40.785Z,6.90
2018-01-15T11:13:08.245Z,6.90
2018-01-15T11:15:35.877Z,7.00
2018-01-15T11:18:03.469Z,7.00
2018-01-15T11:20:31.098Z,7.10
2018-01-15T11:22:58.711Z,7.10
2018-01-15T11:25:26.156Z,7.20
2018-01-15T11:27:53.642Z,7.30
2018-01-15T11:30:21.013Z,7.30
2018-01-15T11:32:48.437Z,7.30
2018-01-15T11:35:16.285Z,7.40
2018-01-15T11:37:43.749Z,7.40
2018-01-15T11:40:11.376Z,7.30
2018-01-15T11:42:38.797Z,7.30
2018-01-15T11:45:06.225Z,7.30
2018-01-15T11:47:33.790Z,7.40
2018-01-15T11:50:01.292Z,7.40
2018-01-15T11:52:28.705Z,7.40
2018-01-15T11:54:56.158Z,7.40
2018-01-15T11:57:23.720Z,7.50
2018-01-15T11:59:51.156Z,7.40
2018-01-15T12:02:18.633Z,7.40
2018-01-15T12:04:46.054Z,7.50
2018-01-15T12:07:13.540Z,7.50
2018-01-15T12:09:41.000Z,7.50
2018-01-15T12:12:08.468Z,7.50
2018-01-15T12:14:35.925Z,7.50
2018-01-15T12:17:03.325Z,7.50
2018-01-15T12:19:30.793Z,7.50
2018-01-15T12:21:58.213Z,7.40
2018-01-15T12:24:25.653Z,7.40
2018-01-15T12:26:53.213Z,7.40
2018-01-15T12:29:20.633Z,7.30
2018-01-15T12:31:48.320Z,7.30
2018-01-15T12:34:15.789Z,7.30
2018-01-15T12:36:43.213Z,7.30
2018-01-15T12:39:10.738Z,7.20
2018-01-15T12:41:38.158Z,7.20
2018-01-15T12:44:05.620Z,7.20
2018-01-15T12:46:33.048Z,7.20
2018-01-15T12:49:00.537Z,7.20
2018-01-15T12:51:27.997Z,7.20
2018-01-15T12:53:55.439Z,7.20
2018-01-15T12:56:22.921Z,7.20
2018-01-15T12:58:50.469Z,7.10
2018-01-15T13:01:18.226Z,7.10
2018-01-15T13:03:45.645Z,7.10
2018-01-15T13:06:19.885Z,7.10
2018-01-15T13:08:49.252Z,7.10
2018-01-15T13:11:16.624Z,7.00
2018-01-15T13:13:44.144Z,6.90
2018-01-15T13:16:11.757Z,6.90
2018-01-15T13:18:39.344Z,6.80
2018-01-15T13:21:07.920Z,6.80
2018-01-15T13:23:35.521Z,6.70
2018-01-15T13:26:03.126Z,6.70
2018-01-15T13:28:30.713Z,6.60
2018-01-15T13:30:58.133Z,6.60
2018-01-15T13:33:25.579Z,6.60
2018-01-15T13:35:53.053Z,6.60
2018-01-15T13:38:20.474Z,6.60
2018-01-15T13:40:47.910Z,6.50
2018-01-15T13:43:15.464Z,6.50
2018-01-15T13:45:43.117Z,6.40
2018-01-15T13:48:10.629Z,6.40
2018-01-15T13:50:38.140Z,6.40
2018-01-15T13:53:05.558Z,6.30
2018-01-15T13:55:33.845Z,6.20
2018-01-15T13:58:01.267Z,6.20
2018-01-15T14:00:28.690Z,6.20
2018-01-15T14:02:56.113Z,6.20
2018-01-15T14:05:23.714Z,6.10
2018-01-15T14:07:51.270Z,6.00
2018-01-15T14:10:18.721Z,6.00
2018-01-15T14:12:46.137Z,6.00
2018-01-15T14:15:13.645Z,5.90
2018-01-15T14:17:41.058Z,5.90
2018-01-15T14:20:08.573Z,5.90
2018-01-15T14:22:36.190Z,5.90
2018-01-15T14:25:03.609Z,5.90
2018-01-15T14:27:31.223Z,5.90
2018-01-15T14:29:58.702Z,5.90
2018-01-15T14:32:26.130Z,5.90
2018-01-15T14:34:53.566Z,5.90
2018-01-15T14:37:21.108Z,5.80
2018-01-15T14:39:48.833Z,5.80
2018-01-15T14:42:16.484Z,5.80
2018-01-15T14:44:43.958Z,5.80
2018-01-15T14:47:11.458Z,5.80
2018-01-15T14:49:38.877Z,5.80
2018-01-15T14:52:06.374Z,5.80
2018-01-15T14:54:33.885Z,5.80
2018-01-15T14:57:01.345Z,5.80
2018-01-15T14:59:28.769Z,5.80
2018-01-15T15:01:56.191Z,5.80
2018-01-15T15:04:23.721Z,5.80
2018-01-15T15:06:51.484Z,5.80
2018-01-15T15:09:18.921Z,5.80
2018-01-15T15:11:46.323Z,5.80
2018-01-15T15:14:13.873Z,5.80
2018-01-15T15:16:41.321Z,5.80
2018-01-15T15:19:08.736Z,5.80
2018-01-15T15:21:36.225Z,5.80
2018-01-15T15:24:03.693Z,5.80
2018-01-15T15:26:31.327Z,5.70
2018-01-15T15:28:58.919Z,5.70
2018-01-15T15:31:26.536Z,5.80
2018-01-15T15:33:54.718Z,5.80
2018-01-15T15:36:22.210Z,5.80
2018-01-15T15:38:49.632Z,5.80
2018-01-15T15:41:17.060Z,5.80
2018-01-15T15:43:44.481Z,5.80
2018-01-15T15:46:11.905Z,5.80
2018-01-15T15:48:39.433Z,5.80
2018-01-15T15:51:06.852Z,5.80
2018-01-15T15:53:34.413Z,5.80
2018-01-15T15:56:02.177Z,5.80
2018-01-15T15:58:29.650Z,5.70
2018-01-15T16:01:02.732Z,5.80
2018-01-15T16:03:30.165Z,5.80
2018-01-15T16:05:57.821Z,5.80
2018-01-15T16:08:25.253Z,5.80
2018-01-15T16:10:52.673Z,5.80
2018-01-15T16:13:20.116Z,5.80
2018-01-15T16:15:47.582Z,5.80
2018-01-15T16:18:15.049Z,5.80
2018-01-15T16:20:42.594Z,5.80
2018-01-15T16:23:10.049Z,5.80
2018-01-15T16:25:37.685Z,5.80
2018-01-15T16:28:05.140Z,5.80
2018-01-15T16:30:32.728Z,5.80
2018-01-15T16:33:00.194Z,5.80
2018-01-15T16:35:27.825Z,5.80
2018-01-15T16:37:55.465Z,5.80
2018-01-15T16:40:22.892Z,5.80
2018-01-15T16:42:50.322Z,5.80
2018-01-15T16:45:17.785Z,5.80
2018-01-15T16:47:45.200Z,5.80
2018-01-15T16:50:28.178Z,5.80
2018-01-15T16:52:55.718Z,5.80
2018-01-15T16:55:23.177Z,5.70
2018-01-15T16:57:50.608Z,5.70
2018-01-15T17:00:18.137Z,5.70
2018-01-15T17:02:45.655Z,5.70
2018-01-15T17:05:13.073Z,5.70
2018-01-15T17:07:40.498Z,5.60
2018-01-15T17:10:07.934Z,5.60
2018-01-15T17:12:35.488Z,5.60
2018-01-15T17:15:02.909Z,5.60
2018-01-15T17:17:30.401Z,5.60
2018-01-15T17:19:57.820Z,5.50
2018-01-15T17:22:25.318Z,5.50
2018-01-15T17:24:52.739Z,5.50
2018-01-15T17:27:20.152Z,5.40
2018-01-15T17:29:47.697Z,5.40
2018-01-15T17:32:15.654Z,5.40
2018-01-15T17:34:43.221Z,5.30
2018-01-15T17:37:10.709Z,5.30
2018-01-15T17:39:38.145Z,5.30
2018-01-15T17:42:05.773Z,5.30
2018-01-15T17:44:33.281Z,5.30
2018-01-15T17:47:00.721Z,5.30
2018-01-15T17:49:28.185Z,5.30
2018-01-15T17:51:55.637Z,5.30
2018-01-15T17:54:23.079Z,5.30
2018-01-15T17:56:50.554Z,5.30
2018-01-15T17:59:18.112Z,5.30
2018-01-15T18:01:45.540Z,5.20
2018-01-15T18:04:12.966Z,5.20
2018-01-15T18:06:40.485Z,5.20
2018-01-15T18:09:08.116Z,5.30
2018-01-15T18:11:35.704Z,5.30
2018-01-15T18:14:03.475Z,5.20
2018-01-15T18:16:30.897Z,5.20
2018-01-15T18:18:58.309Z,5.20
2018-01-15T18:21:25.749Z,5.20
2018-01-15T18:23:53.201Z,5.20
2018-01-15T18:26:20.661Z,5.20
2018-01-15T18:28:48.221Z,5.10
2018-01-15T18:31:15.637Z,5.10
2018-01-15T18:33:43.069Z,5.10
2018-01-15T18:36:11.510Z,5.10
2018-01-15T18:38:38.932Z,5.10
2018-01-15T18:41:06.353Z,5.10
2018-01-15T18:43:33.789Z,5.10
2018-01-15T18:46:01.257Z,5.10
2018-01-15T18:48:28.700Z,5.10
2018-01-15T18:50:56.142Z,5.10
2018-01-15T18:53:23.722Z,5.20
2018-01-15T18:55:51.156Z,5.20
2018-01-15T18:58:18.573Z,5.20
2018-01-15T19:00:46.004Z,5.20
2018-01-15T19:03:13.431Z,5.20
2018-01-15T19:05:40.901Z,5.20
2018-01-15T19:08:08.367Z,5.20
2018-01-15T19:10:35.830Z,5.20
2018-01-15T19:13:03.241Z,5.20
2018-01-15T19:15:31.429Z,5.20
2018-01-15T19:17:58.845Z,5.20
2018-01-15T19:20:26.269Z,5.20
2018-01-15T19:22:53.685Z,5.30
2018-01-15T19:25:21.868Z,5.30
2018-01-15T19:27:49.293Z,5.30
2018-01-15T19:30:16.721Z,5.40
2018-01-15T19:32:44.137Z,5.40
2018-01-15T19:35:12.470Z,5.40
2018-01-15T19:37:40.937Z,5.50
2018-01-15T19:40:08.386Z,5.40
2018-01-15T19:42:35.818Z,5.40
2018-01-15T19:45:08.789Z,5.50
2018-01-15T19:47:42.673Z,5.50
2018-01-15T19:50:15.642Z,5.40
2018-01-15T19:52:48.907Z,5.50
2018-01-15T19:58:39.958Z,5.40
2018-01-15T20:01:13.093Z,5.40
2018-01-15T20:03:46.961Z,5.40
2018-01-15T20:06:20.330Z,5.30
2018-01-15T20:08:53.466Z,5.30
2018-01-15T20:11:21.856Z,5.30
2018-01-15T20:13:49.487Z,5.30
2018-01-15T20:16:17.044Z,5.30
2018-01-15T20:18:44.467Z,5.30
2018-01-15T20:21:11.960Z,5.30
2018-01-15T20:23:39.416Z,5.30
2018-01-15T20:26:06.869Z,5.30
2018-01-15T20:28:34.284Z,5.30
2018-01-15T20:31:01.761Z,5.30
2018-01-15T20:33:29.180Z,5.30
2018-01-15T20:35:56.601Z,5.20
2018-01-15T20:38:24.164Z,5.30
2018-01-15T20:40:51.585Z,5.20
2018-01-15T20:43:19.005Z,5.30
2018-01-15T20:45:46.436Z,5.30
2018-01-15T20:48:13.996Z,5.30
2018-01-15T20:50:41.757Z,5.30
2018-01-15T20:53:09.186Z,5.30
2018-01-15T20:55:36.589Z,5.30
2018-01-15T20:58:04.128Z,5.30
2018-01-15T21:00:31.546Z,5.30
2018-01-15T21:02:58.973Z,5.40
2018-01-15T21:05:26.506Z,5.40
2018-01-15T21:07:53.941Z,5.30
2018-01-15T21:10:21.353Z,5.40
2018-01-15T21:12:48.881Z,5.40
2018-01-15T21:15:16.513Z,5.40
2018-01-15T21:17:43.985Z,5.40
2018-01-15T21:20:11.461Z,5.40
2018-01-15T21:22:38.889Z,5.50
2018-01-15T21:25:06.345Z,5.40
2018-01-15T21:27:33.941Z,5.40
2018-01-15T21:30:01.362Z,5.50
2018-01-15T21:32:28.781Z,5.50
2018-01-15T21:34:56.208Z,5.50
2018-01-15T21:37:23.765Z,5.50
2018-01-15T21:39:51.229Z,5.60
2018-01-15T21:42:18.687Z,5.60
2018-01-15T21:44:46.103Z,5.60
2018-01-15T21:47:13.521Z,5.70
2018-01-15T21:49:40.952Z,5.70
2018-01-15T21:52:08.409Z,5.60
2018-01-15T21:54:35.963Z,5.70
2018-01-15T21:57:03.437Z,5.70
2018-01-15T21:59:30.856Z,5.80
2018-01-15T22:01:58.349Z,5.90
2018-01-15T22:04:25.981Z,5.90
2018-01-15T22:06:53.566Z,5.90
2018-01-15T22:09:21.001Z,5.90
2018-01-15T22:11:48.489Z,6.00
2018-01-15T22:14:16.261Z,6.00
2018-01-15T22:16:43.686Z,6.00
2018-01-15T22:19:11.121Z,6.10
2018-01-15T22:21:38.540Z,6.30
2018-01-15T22:24:05.977Z,6.30
2018-01-15T22:26:33.541Z,6.30
2018-01-15T22:29:00.985Z,6.40
2018-01-15T22:31:28.405Z,6.40
2018-01-15T22:33:55.825Z,6.50
2018-01-15T22:36:23.248Z,6.50
2018-01-15T22:38:50.729Z,6.60
2018-01-15T22:41:18.237Z,6.60
2018-01-15T22:43:45.746Z,6.60
2018-01-15T22:46:13.372Z,6.60
2018-01-15T22:48:40.964Z,6.70
2018-01-15T22:51:08.420Z,6.60
2018-01-15T22:53:35.883Z,6.60
2018-01-15T22:56:03.304Z,6.70
2018-01-15T22:58:30.722Z,6.70
2018-01-15T23:00:58.258Z,6.60
2018-01-15T23:03:25.675Z,6.60
2018-01-15T23:05:53.173Z,6.60
2018-01-15T23:08:20.590Z,6.70
2018-01-15T23:10:48.885Z,6.80
2018-01-15T23:13:16.354Z,6.70
2018-01-15T23:15:43.930Z,6.80
2018-01-15T23:18:11.461Z,6.80
2018-01-15T23:20:39.144Z,6.80
2018-01-15T23:23:06.565Z,6.80
2018-01-15T23:25:34.981Z,6.80
2018-01-15T23:28:02.401Z,6.80
2018-01-15T23:30:29.905Z,6.80
2018-01-15T23:32:57.325Z,6.80
2018-01-15T23:35:24.812Z,6.80
2018-01-15T23:37:52.242Z,6.80
2018-01-15T23:40:19.658Z,6.80
2018-01-15T23:42:47.124Z,6.80
2018-01-15T23:45:14.497Z,6.80
2018-01-15T23:47:42.682Z,6.80
2018-01-15T23:50:10.178Z,6.80
2018-01-15T23:52:37.632Z,6.80
2018-01-15T23:55:05.049Z,6.80
2018-01-15T23:57:32.469Z,6.80
2018-01-15T23:59:59.897Z,6.80
